createdAt,value
2018-11-11T00:01:43.410Z,100443.00
2018-11-11T00:04:12.396Z,100431.00
2018-11-11T00:06:41.243Z,100431.00
2018-11-11T00:09:10.414Z,100428.00
2018-11-11T00:11:39.371Z,100425.00
2018-11-11T00:14:08.230Z,100435.00
2018-11-11T00:16:37.080Z,100444.00
2018-11-11T00:19:06.432Z,100433.00
2018-11-11T00:21:35.277Z,100437.00
2018-11-11T00:24:04.118Z,100427.00
2018-11-11T00:26:32.972Z,100413.00
2018-11-11T00:29:01.819Z,100426.00
2018-11-11T00:31:30.678Z,100421.00
2018-11-11T00:34:00.390Z,100418.00
2018-11-11T00:36:29.206Z,100419.00
2018-11-11T00:38:58.047Z,100418.00
2018-11-11T00:41:26.888Z,100416.00
2018-11-11T00:43:55.747Z,100426.00
2018-11-11T00:46:24.576Z,100417.00
2018-11-11T00:48:53.454Z,100413.00
2018-11-11T00:51:22.323Z,100425.00
2018-11-11T00:53:51.157Z,100427.00
2018-11-11T00:56:19.998Z,100431.00
2018-11-11T00:58:48.891Z,100436.00
2018-11-11T01:01:17.787Z,100433.00
2018-11-11T01:03:46.646Z,100435.00
2018-11-11T01:06:15.699Z,100442.00
2018-11-11T01:08:44.699Z,100446.00
2018-11-11T01:11:13.547Z,100444.00
2018-11-11T01:13:42.395Z,100443.00
2018-11-11T01:16:11.246Z,100445.00
2018-11-11T01:18:40.082Z,100440.00
2018-11-11T01:21:08.969Z,100446.00
2018-11-11T01:23:37.803Z,100439.00
2018-11-11T01:26:06.711Z,100449.00
2018-11-11T01:28:35.578Z,100437.00
2018-11-11T01:31:05.483Z,100436.00
2018-11-11T01:33:34.381Z,100433.00
2018-11-11T01:36:03.622Z,100425.00
2018-11-11T01:38:32.475Z,100419.00
2018-11-11T01:41:01.323Z,100417.00
2018-11-11T01:43:30.194Z,100423.00
2018-11-11T01:45:59.073Z,100425.00
2018-11-11T01:48:27.924Z,100433.00
2018-11-11T01:50:56.842Z,100429.00
2018-11-11T01:53:25.714Z,100434.00
2018-11-11T01:55:54.566Z,100430.00
2018-11-11T01:58:23.414Z,100420.00
2018-11-11T02:00:52.271Z,100418.00
2018-11-11T02:03:21.101Z,100429.00
2018-11-11T02:05:49.978Z,100419.00
2018-11-11T02:08:18.870Z,100423.00
2018-11-11T02:10:47.731Z,100414.00
2018-11-11T02:13:16.603Z,100432.00
2018-11-11T02:15:45.464Z,100431.00
2018-11-11T02:18:14.409Z,100433.00
2018-11-11T02:20:43.248Z,100430.00
2018-11-11T02:23:12.128Z,100432.00
2018-11-11T02:25:40.974Z,100438.00
2018-11-11T02:28:09.842Z,100432.00
2018-11-11T02:30:38.730Z,100423.00
2018-11-11T02:33:08.583Z,100426.00
2018-11-11T02:35:37.453Z,100422.00
2018-11-11T02:38:06.375Z,100395.00
2018-11-11T02:40:35.247Z,100426.00
2018-11-11T02:43:04.130Z,100422.00
2018-11-11T02:45:33.022Z,100435.00
2018-11-11T02:48:01.890Z,100413.00
2018-11-11T02:50:30.750Z,100423.00
2018-11-11T02:52:59.629Z,100433.00
2018-11-11T02:55:28.475Z,100436.00
2018-11-11T02:57:57.370Z,100326.00
2018-11-11T03:00:26.202Z,100430.00
2018-11-11T03:02:55.146Z,100428.00
2018-11-11T03:05:24.047Z,100427.00
2018-11-11T03:07:52.930Z,100428.00
2018-11-11T03:10:21.830Z,100424.00
2018-11-11T03:12:51.353Z,100432.00
2018-11-11T03:15:20.527Z,100431.00
2018-11-11T03:17:49.338Z,100424.00
2018-11-11T03:20:18.619Z,100422.00
2018-11-11T03:22:47.508Z,100427.00
2018-11-11T03:25:17.138Z,100434.00
2018-11-11T03:27:46.048Z,100430.00
2018-11-11T03:30:16.249Z,100429.00
2018-11-11T03:32:45.117Z,100447.00
2018-11-11T03:35:14.618Z,100447.00
2018-11-11T03:37:44.230Z,100454.00
2018-11-11T03:40:15.290Z,100456.00
2018-11-11T03:42:44.296Z,100445.00
2018-11-11T03:45:14.478Z,100461.00
2018-11-11T03:47:44.188Z,100461.00
2018-11-11T03:50:13.088Z,100449.00
2018-11-11T03:52:42.182Z,100445.00
2018-11-11T03:55:11.298Z,100434.00
2018-11-11T03:57:40.156Z,100442.00
2018-11-11T04:00:13.660Z,100428.00
2018-11-11T04:02:42.519Z,100432.00
2018-11-11T04:05:12.686Z,100439.00
2018-11-11T04:07:41.662Z,100437.00
2018-11-11T04:10:14.118Z,100441.00
2018-11-11T04:13:46.418Z,100450.00
2018-11-11T04:16:15.304Z,100464.00
2018-11-11T04:18:44.234Z,100469.00
2018-11-11T04:21:13.150Z,100474.00
2018-11-11T04:23:42.013Z,100464.00
2018-11-11T04:26:10.843Z,100468.00
2018-11-11T04:28:39.721Z,100461.00
2018-11-11T04:31:08.583Z,100475.00
2018-11-11T04:33:37.439Z,100468.00
2018-11-11T04:36:06.323Z,100465.00
2018-11-11T04:38:35.166Z,100477.00
2018-11-11T04:42:07.294Z,100477.00
2018-11-11T04:44:36.173Z,100472.00
2018-11-11T04:47:05.063Z,100474.00
2018-11-11T04:49:33.954Z,100485.00
2018-11-11T04:52:02.918Z,100480.00
2018-11-11T04:54:31.854Z,100465.00
2018-11-11T04:57:00.757Z,100466.00
2018-11-11T04:59:29.650Z,100464.00
2018-11-11T05:01:58.515Z,100465.00
2018-11-11T05:04:27.444Z,100468.00
2018-11-11T05:06:56.299Z,100469.00
2018-11-11T05:09:25.154Z,100463.00
2018-11-11T05:11:54.043Z,100467.00
2018-11-11T05:14:22.935Z,100461.00
2018-11-11T05:16:51.802Z,100456.00
2018-11-11T05:19:20.649Z,100463.00
2018-11-11T05:21:49.556Z,100459.00
2018-11-11T05:24:18.398Z,100466.00
2018-11-11T05:26:47.290Z,100470.00
2018-11-11T05:29:16.184Z,100474.00
2018-11-11T05:31:45.197Z,100479.00
2018-11-11T05:34:14.196Z,100481.00
2018-11-11T05:36:43.058Z,100479.00
2018-11-11T05:39:13.207Z,100478.00
2018-11-11T05:41:42.290Z,100483.00
2018-11-11T05:44:11.287Z,100490.00
2018-11-11T05:46:40.186Z,100500.00
2018-11-11T05:49:09.079Z,100485.00
2018-11-11T05:51:37.927Z,100497.00
2018-11-11T05:54:06.759Z,100490.00
2018-11-11T05:56:35.615Z,100499.00
2018-11-11T05:59:04.731Z,100488.00
2018-11-11T06:01:33.546Z,100493.00
2018-11-11T06:04:02.411Z,100495.00
2018-11-11T06:06:31.326Z,100497.00
2018-11-11T06:09:00.214Z,100493.00
2018-11-11T06:11:29.106Z,100507.00
2018-11-11T06:13:57.979Z,100502.00
2018-11-11T06:16:26.825Z,100493.00
2018-11-11T06:18:55.674Z,100486.00
2018-11-11T06:21:24.544Z,100491.00
2018-11-11T06:23:53.410Z,100480.00
2018-11-11T06:26:22.275Z,100476.00
2018-11-11T06:28:51.113Z,100482.00
2018-11-11T06:31:19.969Z,100481.00
2018-11-11T06:33:48.924Z,100482.00
2018-11-11T06:36:17.748Z,100494.00
2018-11-11T06:38:46.594Z,100488.00
2018-11-11T06:41:15.483Z,100482.00
2018-11-11T06:43:44.322Z,100496.00
2018-11-11T06:46:13.186Z,100489.00
2018-11-11T06:48:42.059Z,100501.00
2018-11-11T06:51:10.958Z,100494.00
2018-11-11T06:53:39.819Z,100484.00
2018-11-11T06:56:08.710Z,100490.00
2018-11-11T06:58:37.625Z,100488.00
2018-11-11T07:01:06.587Z,100499.00
2018-11-11T07:03:54.851Z,100512.00
2018-11-11T07:06:24.072Z,100488.00
2018-11-11T07:08:52.915Z,100483.00
2018-11-11T07:11:21.806Z,100475.00
2018-11-11T07:13:50.766Z,100477.00
2018-11-11T07:16:19.586Z,100468.00
2018-11-11T07:18:48.748Z,100473.00
2018-11-11T07:21:18.228Z,100476.00
2018-11-11T07:23:48.069Z,100482.00
2018-11-11T07:26:16.842Z,100469.00
2018-11-11T07:28:45.788Z,100472.00
2018-11-11T07:31:14.674Z,100465.00
2018-11-11T07:33:43.542Z,100465.00
2018-11-11T07:36:12.594Z,100472.00
2018-11-11T07:38:41.318Z,100479.00
2018-11-11T07:41:10.230Z,100473.00
2018-11-11T07:43:39.350Z,100474.00
2018-11-11T07:46:08.332Z,100463.00
2018-11-11T07:48:37.311Z,100467.00
2018-11-11T07:51:06.619Z,100469.00
2018-11-11T07:53:35.474Z,100475.00
2018-11-11T07:56:04.502Z,100474.00
2018-11-11T07:58:34.054Z,100474.00
2018-11-11T08:01:02.899Z,100470.00
2018-11-11T08:03:31.783Z,100471.00
2018-11-11T08:06:00.643Z,100478.00
2018-11-11T08:08:29.463Z,100498.00
2018-11-11T08:11:15.650Z,100488.00
2018-11-11T08:13:44.518Z,100484.00
2018-11-11T08:16:13.339Z,100489.00
2018-11-11T08:18:42.246Z,100493.00
2018-11-11T08:21:11.231Z,100493.00
2018-11-11T08:23:40.215Z,100487.00
2018-11-11T08:26:09.187Z,100469.00
2018-11-11T08:28:38.106Z,100474.00
2018-11-11T08:31:07.086Z,100478.00
2018-11-11T08:33:36.058Z,100469.00
2018-11-11T08:36:05.151Z,100462.00
2018-11-11T08:38:34.277Z,100450.00
2018-11-11T08:41:03.291Z,100477.00
2018-11-11T08:43:32.282Z,100496.00
2018-11-11T08:46:01.224Z,100505.00
2018-11-11T08:48:30.147Z,100508.00
2018-11-11T08:50:59.087Z,100497.00
2018-11-11T08:53:28.023Z,100516.00
2018-11-11T08:55:56.956Z,100507.00
2018-11-11T08:58:25.877Z,100520.00
2018-11-11T09:00:54.804Z,100502.00
2018-11-11T09:03:23.803Z,100522.00
2018-11-11T09:05:52.747Z,100521.00
2018-11-11T09:08:21.639Z,100517.00
2018-11-11T09:10:50.534Z,100523.00
2018-11-11T09:13:19.454Z,100529.00
2018-11-11T09:15:48.543Z,100531.00
2018-11-11T09:18:17.566Z,100541.00
2018-11-11T09:20:46.551Z,100533.00
2018-11-11T09:23:15.466Z,100535.00
2018-11-11T09:25:44.318Z,100542.00
2018-11-11T09:28:13.253Z,100545.00
2018-11-11T09:30:42.195Z,100549.00
2018-11-11T09:33:11.171Z,100531.00
2018-11-11T09:35:40.119Z,100529.00
2018-11-11T09:38:09.002Z,100521.00
2018-11-11T09:40:37.962Z,100509.00
2018-11-11T09:43:07.160Z,100529.00
2018-11-11T09:45:36.155Z,100565.00
2018-11-11T09:48:05.300Z,100570.00
2018-11-11T09:51:37.454Z,100570.00
2018-11-11T09:54:07.055Z,100561.00
2018-11-11T09:56:36.253Z,100567.00
2018-11-11T09:59:05.428Z,100556.00
2018-11-11T10:01:34.392Z,100563.00
2018-11-11T10:04:10.406Z,100561.00
2018-11-11T10:07:47.299Z,100565.00
2018-11-11T10:10:20.870Z,100563.00
2018-11-11T10:13:26.351Z,100564.00
2018-11-11T10:16:00.471Z,100569.00
2018-11-11T10:18:36.415Z,100567.00
2018-11-11T10:21:24.413Z,100591.00
2018-11-11T10:24:11.823Z,100598.00
2018-11-11T10:26:46.054Z,100590.00
2018-11-11T10:29:19.582Z,100579.00
2018-11-11T10:31:53.726Z,100569.00
2018-11-11T10:34:30.776Z,100572.00
2018-11-11T10:37:05.624Z,100573.00
2018-11-11T10:39:53.338Z,100568.00
2018-11-11T10:44:32.745Z,100580.00
2018-11-11T10:47:03.641Z,100597.00
2018-11-11T10:49:38.740Z,100605.00
2018-11-11T10:52:07.648Z,100598.00
2018-11-11T10:54:36.598Z,100590.00
2018-11-11T10:57:05.507Z,100601.00
2018-11-11T10:59:34.444Z,100604.00
2018-11-11T11:02:08.716Z,100594.00
2018-11-11T11:04:43.226Z,100598.00
2018-11-11T11:07:12.184Z,100605.00
2018-11-11T11:09:41.023Z,100604.00
2018-11-11T11:12:09.938Z,100610.00
2018-11-11T11:14:38.812Z,100614.00
2018-11-11T11:17:07.770Z,100624.00
2018-11-11T11:19:36.727Z,100620.00
2018-11-11T11:22:06.239Z,100624.00
2018-11-11T11:24:35.144Z,100628.00
2018-11-11T11:27:04.213Z,100630.00
2018-11-11T11:29:33.067Z,100640.00
2018-11-11T11:32:01.994Z,100643.00
2018-11-11T11:34:30.868Z,100629.00
2018-11-11T11:36:59.768Z,100634.00
2018-11-11T11:39:28.650Z,100636.00
2018-11-11T11:41:57.560Z,100634.00
2018-11-11T11:44:26.473Z,100635.00
2018-11-11T11:46:55.582Z,100639.00
2018-11-11T11:49:24.570Z,100630.00
2018-11-11T11:51:53.551Z,100623.00
2018-11-11T11:54:22.383Z,100636.00
2018-11-11T11:56:51.296Z,100623.00
2018-11-11T11:59:20.174Z,100623.00
2018-11-11T12:01:49.074Z,100625.00
2018-11-11T12:04:17.943Z,100618.00
2018-11-11T12:06:46.862Z,100636.00
2018-11-11T12:09:15.802Z,100636.00
2018-11-11T12:11:45.662Z,100637.00
2018-11-11T12:14:14.550Z,100635.00
2018-11-11T12:16:43.458Z,100635.00
2018-11-11T12:19:12.331Z,100636.00
2018-11-11T12:21:41.222Z,100632.00
2018-11-11T12:24:10.094Z,100620.00
2018-11-11T12:26:38.985Z,100623.00
2018-11-11T12:29:07.890Z,100597.00
2018-11-11T12:31:36.738Z,100597.00
2018-11-11T12:34:06.194Z,100593.00
2018-11-11T12:36:35.267Z,100597.00
2018-11-11T12:39:06.107Z,100599.00
2018-11-11T12:41:35.001Z,100593.00
2018-11-11T12:44:03.926Z,100586.00
2018-11-11T12:46:32.920Z,100574.00
2018-11-11T12:49:01.911Z,100572.00
2018-11-11T12:51:31.025Z,100586.00
2018-11-11T12:53:59.993Z,100591.00
2018-11-11T12:56:28.963Z,100587.00
2018-11-11T12:58:58.178Z,100592.00
2018-11-11T13:01:27.134Z,100579.00
2018-11-11T13:03:56.122Z,100570.00
2018-11-11T13:06:25.304Z,100566.00
2018-11-11T13:08:54.193Z,100566.00
2018-11-11T13:11:23.199Z,100563.00
2018-11-11T13:14:55.461Z,100558.00
2018-11-11T13:17:24.371Z,100563.00
2018-11-11T13:19:53.327Z,100574.00
2018-11-11T13:22:22.401Z,100586.00
2018-11-11T13:24:51.294Z,100576.00
2018-11-11T13:27:20.237Z,100582.00
2018-11-11T13:29:49.129Z,100578.00
2018-11-11T13:32:18.026Z,100587.00
2018-11-11T13:34:46.911Z,100587.00
2018-11-11T13:37:15.823Z,100601.00
2018-11-11T13:39:44.789Z,100617.00
2018-11-11T13:42:13.667Z,100623.00
2018-11-11T13:44:42.597Z,100621.00
2018-11-11T13:47:11.567Z,100613.00
2018-11-11T13:49:40.455Z,100616.00
2018-11-11T13:52:09.314Z,100619.00
2018-11-11T13:54:38.306Z,100611.00
2018-11-11T13:57:08.301Z,100625.00
2018-11-11T13:59:37.260Z,100630.00
2018-11-11T14:02:06.468Z,100646.00
2018-11-11T14:04:35.535Z,100643.00
2018-11-11T14:07:04.442Z,100630.00
2018-11-11T14:09:33.427Z,100637.00
2018-11-11T14:12:02.319Z,100648.00
2018-11-11T14:14:31.313Z,100653.00
2018-11-11T14:17:00.355Z,100657.00
2018-11-11T14:19:29.328Z,100657.00
2018-11-11T14:21:58.139Z,100660.00
2018-11-11T14:24:27.052Z,100657.00
2018-11-11T14:26:56.053Z,100655.00
2018-11-11T14:29:24.964Z,100656.00
2018-11-11T14:31:53.908Z,100671.00
2018-11-11T14:34:22.869Z,100675.00
2018-11-11T14:36:51.830Z,100671.00
2018-11-11T14:39:20.835Z,100678.00
2018-11-11T14:41:49.795Z,100679.00
2018-11-11T14:44:18.684Z,100689.00
2018-11-11T14:46:47.529Z,100690.00
2018-11-11T14:49:16.498Z,100694.00
2018-11-11T14:51:45.495Z,100694.00
2018-11-11T14:54:14.443Z,100704.00
2018-11-11T14:56:43.348Z,100710.00
2018-11-11T14:59:12.242Z,100720.00
2018-11-11T15:01:41.184Z,100725.00
2018-11-11T15:04:10.014Z,100725.00
2018-11-11T15:06:38.857Z,100723.00
2018-11-11T15:09:10.715Z,100724.00
2018-11-11T15:11:40.110Z,100723.00
2018-11-11T15:14:09.215Z,100716.00
2018-11-11T15:16:38.251Z,100706.00
2018-11-11T15:19:07.246Z,100693.00
2018-11-11T15:21:36.134Z,100700.00
2018-11-11T15:24:05.536Z,100700.00
2018-11-11T15:26:34.398Z,100697.00
2018-11-11T15:29:03.318Z,100697.00
2018-11-11T15:31:32.214Z,100693.00
2018-11-11T15:34:01.088Z,100686.00
2018-11-11T15:36:30.015Z,100683.00
2018-11-11T15:38:58.954Z,100672.00
2018-11-11T15:41:27.902Z,100665.00
2018-11-11T15:43:56.871Z,100676.00
2018-11-11T15:46:25.836Z,100694.00
2018-11-11T15:48:54.775Z,100698.00
2018-11-11T15:51:23.686Z,100702.00
2018-11-11T15:53:52.638Z,100712.00
2018-11-11T15:56:21.593Z,100701.00
2018-11-11T15:58:50.488Z,100710.00
2018-11-11T16:01:19.395Z,100715.00
2018-11-11T16:03:48.298Z,100727.00
2018-11-11T16:06:17.293Z,100724.00
2018-11-11T16:08:46.307Z,100738.00
2018-11-11T16:11:15.346Z,100743.00
2018-11-11T16:13:44.247Z,100745.00
2018-11-11T16:16:13.108Z,100740.00
2018-11-11T16:18:42.149Z,100754.00
2018-11-11T16:21:11.012Z,100757.00
2018-11-11T16:23:39.991Z,100752.00
2018-11-11T16:26:08.893Z,100758.00
2018-11-11T16:28:37.842Z,100753.00
2018-11-11T16:31:06.819Z,100745.00
2018-11-11T16:33:35.779Z,100744.00
2018-11-11T16:36:04.971Z,100744.00
2018-11-11T16:38:33.859Z,100729.00
2018-11-11T16:41:02.792Z,100732.00
2018-11-11T16:43:31.670Z,100734.00
2018-11-11T16:46:00.642Z,100731.00
2018-11-11T16:48:29.499Z,100736.00
2018-11-11T16:50:58.391Z,100736.00
2018-11-11T16:53:27.384Z,100737.00
2018-11-11T16:55:56.283Z,100747.00
2018-11-11T16:58:25.182Z,100737.00
2018-11-11T17:00:54.124Z,100730.00
2018-11-11T17:03:23.050Z,100735.00
2018-11-11T17:05:51.986Z,100734.00
2018-11-11T17:08:20.931Z,100723.00
2018-11-11T17:10:50.012Z,100719.00
2018-11-11T17:13:18.938Z,100722.00
2018-11-11T17:15:47.864Z,100732.00
2018-11-11T17:18:17.254Z,100721.00
2018-11-11T17:20:45.982Z,100720.00
2018-11-11T17:23:14.607Z,100730.00
2018-11-11T17:25:43.322Z,100733.00
2018-11-11T17:28:12.329Z,100711.00
2018-11-11T17:30:41.087Z,100748.00
2018-11-11T17:33:09.993Z,100748.00
2018-11-11T17:35:38.642Z,100738.00
2018-11-11T17:38:07.361Z,100746.00
2018-11-11T17:40:36.154Z,100751.00
2018-11-11T17:43:05.198Z,100751.00
2018-11-11T17:45:33.933Z,100746.00
2018-11-11T17:48:02.693Z,100749.00
2018-11-11T17:50:32.585Z,100757.00
2018-11-11T17:53:02.574Z,100750.00
2018-11-11T17:55:31.607Z,100759.00
2018-11-11T17:58:00.321Z,100767.00
2018-11-11T18:00:30.186Z,100767.00
2018-11-11T18:02:59.844Z,100775.00
2018-11-11T18:05:29.701Z,100778.00
2018-11-11T18:07:58.712Z,100792.00
2018-11-11T18:10:28.072Z,100797.00
2018-11-11T18:12:56.989Z,100784.00
2018-11-11T18:15:27.814Z,100791.00
2018-11-11T18:17:56.563Z,100801.00
2018-11-11T18:20:28.653Z,100805.00
2018-11-11T18:22:58.386Z,100804.00
2018-11-11T18:25:27.135Z,100804.00
2018-11-11T18:27:55.943Z,100810.00
2018-11-11T18:30:26.980Z,100820.00
2018-11-11T18:32:55.721Z,100814.00
2018-11-11T18:35:24.447Z,100804.00
2018-11-11T18:37:53.444Z,100807.00
2018-11-11T18:40:23.558Z,100803.00
2018-11-11T18:42:52.308Z,100808.00
2018-11-11T18:45:22.379Z,100799.00
2018-11-11T18:47:51.598Z,100805.00
2018-11-11T18:50:22.617Z,100811.00
2018-11-11T18:52:51.348Z,100817.00
2018-11-11T18:55:20.034Z,100833.00
2018-11-11T18:57:48.877Z,100819.00
2018-11-11T19:00:23.070Z,100823.00
2018-11-11T19:02:52.606Z,100829.00
2018-11-11T19:05:21.929Z,100830.00
2018-11-11T19:07:50.862Z,100832.00
2018-11-11T19:10:21.128Z,100838.00
2018-11-11T19:12:51.056Z,100831.00
2018-11-11T19:15:20.297Z,100826.00
2018-11-11T19:17:49.697Z,100827.00
2018-11-11T19:20:19.754Z,100809.00
2018-11-11T19:22:48.607Z,100821.00
2018-11-11T19:25:18.828Z,100813.00
2018-11-11T19:27:48.832Z,100805.00
2018-11-11T19:30:18.724Z,100807.00
2018-11-11T19:32:48.343Z,100804.00
2018-11-11T19:35:17.566Z,100805.00
2018-11-11T19:37:47.871Z,100805.00
2018-11-11T19:40:18.190Z,100803.00
2018-11-11T19:42:47.100Z,100813.00
2018-11-11T19:45:18.026Z,100817.00
2018-11-11T19:47:46.777Z,100811.00
2018-11-11T19:50:16.825Z,100811.00
2018-11-11T19:52:46.824Z,100821.00
2018-11-11T19:55:16.625Z,100820.00
2018-11-11T19:57:45.362Z,100803.00
2018-11-11T20:00:17.616Z,100805.00
2018-11-11T20:02:47.521Z,100804.00
2018-11-11T20:05:16.859Z,100803.00
2018-11-11T20:14:44.229Z,100834.00
2018-11-11T20:17:13.203Z,100837.00
2018-11-11T20:19:42.055Z,100846.00
2018-11-11T20:22:10.797Z,100846.00
2018-11-11T20:24:39.623Z,100867.00
2018-11-11T20:27:08.369Z,100854.00
2018-11-11T20:29:37.166Z,100857.00
2018-11-11T20:32:05.962Z,100863.00
2018-11-11T20:34:34.630Z,100854.00
2018-11-11T20:37:03.456Z,100859.00
2018-11-11T20:39:32.291Z,100865.00
2018-11-11T20:42:01.063Z,100857.00
2018-11-11T20:44:29.804Z,100865.00
2018-11-11T20:46:58.570Z,100877.00
2018-11-11T20:49:27.354Z,100872.00
2018-11-11T20:51:56.146Z,100873.00
2018-11-11T20:54:25.111Z,100856.00
2018-11-11T20:56:53.929Z,100882.00
2018-11-11T20:59:22.687Z,100877.00
2018-11-11T21:01:51.499Z,100890.00
2018-11-11T21:04:20.287Z,100890.00
2018-11-11T21:06:49.093Z,100900.00
2018-11-11T21:09:17.866Z,100897.00
2018-11-11T21:11:46.598Z,100904.00
2018-11-11T21:14:15.321Z,100896.00
2018-11-11T21:16:44.128Z,100912.00
2018-11-11T21:19:13.629Z,100904.00
2018-11-11T21:21:42.328Z,100902.00
2018-11-11T21:24:11.083Z,100894.00
2018-11-11T21:26:39.858Z,100889.00
2018-11-11T21:29:08.645Z,100890.00
2018-11-11T21:31:37.456Z,100883.00
2018-11-11T21:34:06.172Z,100898.00
2018-11-11T21:36:34.926Z,100901.00
2018-11-11T21:39:04.327Z,100897.00
2018-11-11T21:41:33.226Z,100893.00
2018-11-11T21:44:02.050Z,100889.00
2018-11-11T21:46:30.782Z,100887.00
2018-11-11T21:48:59.589Z,100890.00
2018-11-11T21:51:29.378Z,100885.00
2018-11-11T21:53:58.170Z,100873.00
2018-11-11T21:56:26.971Z,100875.00
2018-11-11T21:58:55.751Z,100872.00
2018-11-11T22:01:24.590Z,100871.00
2018-11-11T22:03:53.339Z,100865.00
2018-11-11T22:06:22.107Z,100870.00
2018-11-11T22:08:50.980Z,100873.00
2018-11-11T22:11:19.683Z,100859.00
2018-11-11T22:13:48.486Z,100871.00
2018-11-11T22:16:17.254Z,100869.00
2018-11-11T22:18:46.079Z,100869.00
2018-11-11T22:22:18.290Z,100871.00
2018-11-11T22:24:46.986Z,100881.00
2018-11-11T22:27:15.789Z,100903.00
2018-11-11T22:29:44.598Z,100900.00
2018-11-11T22:32:13.373Z,100914.00
2018-11-11T22:34:42.166Z,100931.00
2018-11-11T22:37:10.954Z,100931.00
2018-11-11T22:39:39.746Z,100934.00
2018-11-11T22:42:08.536Z,100943.00
2018-11-11T22:44:37.372Z,100949.00
2018-11-11T22:47:06.119Z,100950.00
2018-11-11T22:49:34.841Z,100950.00
2018-11-11T22:52:03.493Z,100947.00
2018-11-11T22:54:32.213Z,100949.00
2018-11-11T22:57:00.958Z,100945.00
2018-11-11T22:59:29.805Z,100956.00
2018-11-11T23:01:59.514Z,100946.00
2018-11-11T23:04:28.274Z,100952.00
2018-11-11T23:06:56.982Z,100967.00
2018-11-11T23:09:25.762Z,100963.00
2018-11-11T23:11:54.466Z,100971.00
2018-11-11T23:14:23.233Z,100983.00
2018-11-11T23:16:51.942Z,100981.00
2018-11-11T23:19:20.732Z,100974.00
2018-11-11T23:21:49.478Z,100973.00
2018-11-11T23:24:18.241Z,100983.00
2018-11-11T23:26:46.976Z,100978.00
2018-11-11T23:29:15.870Z,100982.00
2018-11-11T23:31:45.221Z,100981.00
2018-11-11T23:34:13.963Z,100985.00
2018-11-11T23:36:43.779Z,100977.00
2018-11-11T23:39:12.535Z,100975.00
2018-11-11T23:41:41.227Z,100970.00
2018-11-11T23:44:10.979Z,100969.00
2018-11-11T23:46:39.793Z,100972.00
2018-11-11T23:49:09.233Z,100970.00
2018-11-11T23:51:38.007Z,100967.00
2018-11-11T23:54:06.933Z,100976.00
2018-11-11T23:56:35.910Z,100976.00
2018-11-11T23:59:04.726Z,100975.00
